Time;durP1;ratioP1;P1;durP2;ratioP2;P2;SDS_P1;SDS_P2;PMS_P1;PMS_P2;Temp;Humidity;BMP_temperature;BMP_pressure;BME280_temperature;BME280_humidity;BME280_pressure;Samples;Min_cycle;Max_cycle;Signal;HPM_P1;HPM_P2
2021/07/12 00:00:43;;;;;;;1.65;1.08;;;25.10;47.50;;;;;;5024312;28;20199;-46
2021/07/12 00:03:10;;;;;;;1.63;1.30;;;25.00;47.50;;;;;;5017304;28;20226;-45
2021/07/12 00:05:40;;;;;;;1.50;1.20;;;25.10;47.50;;;;;;5014718;28;20212;-45
2021/07/12 00:08:06;;;;;;;1.20;1.10;;;25.00;47.40;;;;;;5010725;28;20217;-49
2021/07/12 00:10:33;;;;;;;1.48;1.35;;;25.10;47.50;;;;;;5011630;28;20195;-49
2021/07/12 00:12:59;;;;;;;2.60;1.30;;;25.10;47.50;;;;;;5015035;28;20219;-49
2021/07/12 00:15:26;;;;;;;1.55;1.45;;;25.00;47.40;;;;;;5010427;28;20217;-48
2021/07/12 00:17:52;;;;;;;1.77;1.63;;;25.00;47.40;;;;;;5013231;28;20564;-50
2021/07/12 00:20:18;;;;;;;2.05;1.30;;;25.00;47.40;;;;;;5017710;28;20650;-52
2021/07/12 00:22:45;;;;;;;1.33;1.20;;;25.00;47.40;;;;;;5023030;28;20689;-50
2021/07/12 00:25:12;;;;;;;1.40;1.30;;;25.00;47.40;;;;;;5024358;28;20211;-47
2021/07/12 00:27:38;;;;;;;1.45;1.30;;;25.00;47.30;;;;;;5007938;28;20199;-45
2021/07/12 00:30:04;;;;;;;1.95;1.20;;;25.00;47.30;;;;;;5009318;28;20207;-45
2021/07/12 00:32:31;;;;;;;1.17;1.10;;;25.10;47.40;;;;;;5010766;28;20225;-45
2021/07/12 00:34:57;;;;;;;1.30;1.20;;;25.00;47.30;;;;;;5011891;28;20217;-52
2021/07/12 00:37:24;;;;;;;1.60;1.45;;;25.00;47.30;;;;;;5013130;28;20198;-49
2021/07/12 00:39:50;;;;;;;1.40;1.23;;;25.10;47.40;;;;;;5014448;28;20237;-50
2021/07/12 00:42:17;;;;;;;1.25;1.10;;;25.10;47.40;;;;;;5011703;28;20233;-51
2021/07/12 00:44:43;;;;;;;1.65;1.35;;;25.00;47.30;;;;;;5024979;28;20203;-48
2021/07/12 00:47:09;;;;;;;1.55;1.13;;;25.00;47.30;;;;;;5014774;28;20199;-51
2021/07/12 00:49:36;;;;;;;1.55;1.45;;;25.10;47.40;;;;;;5011434;28;20210;-52
2021/07/12 00:52:02;;;;;;;1.20;1.10;;;25.00;47.40;;;;;;5017901;28;20205;-45
2021/07/12 00:54:29;;;;;;;1.52;1.42;;;25.00;47.30;;;;;;5025525;28;20199;-45
2021/07/12 00:56:55;;;;;;;2.42;1.40;;;25.10;47.40;;;;;;5021547;28;20207;-45
2021/07/12 00:59:22;;;;;;;1.92;1.48;;;25.10;47.40;;;;;;5010050;28;20314;-45
2021/07/12 01:01:48;;;;;;;1.23;1.13;;;25.10;47.40;;;;;;5006125;28;20199;-47
2021/07/12 01:04:15;;;;;;;1.33;1.10;;;25.00;47.30;;;;;;5024463;28;20211;-45
2021/07/12 01:06:41;;;;;;;1.40;1.30;;;25.00;47.30;;;;;;5010883;28;20209;-47
2021/07/12 01:09:08;;;;;;;1.50;1.40;;;25.00;47.30;;;;;;5019146;28;20210;-47
2021/07/12 01:11:34;;;;;;;1.13;1.02;;;25.00;47.30;;;;;;5009981;28;20203;-47
2021/07/12 01:14:01;;;;;;;1.05;1.05;;;25.00;47.30;;;;;;5012888;28;20233;-51
2021/07/12 01:16:27;;;;;;;1.60;1.45;;;25.00;47.30;;;;;;5011020;28;20199;-50
2021/07/12 01:18:53;;;;;;;1.40;1.30;;;25.00;47.30;;;;;;5022849;28;20234;-47
2021/07/12 01:21:20;;;;;;;1.30;1.20;;;25.00;47.30;;;;;;5016841;28;20199;-51
2021/07/12 01:23:46;;;;;;;1.30;1.20;;;25.00;47.30;;;;;;5021056;28;20333;-50
2021/07/12 01:26:13;;;;;;;1.45;1.35;;;25.00;47.30;;;;;;5030889;28;20203;-48
2021/07/12 01:28:39;;;;;;;1.30;1.20;;;25.00;47.30;;;;;;5016699;28;20217;-45
2021/07/12 01:31:06;;;;;;;1.10;1.10;;;25.00;47.40;;;;;;5011200;28;20203;-48
2021/07/12 01:33:32;;;;;;;1.20;1.10;;;25.00;47.40;;;;;;5012940;28;20221;-48
2021/07/12 01:35:58;;;;;;;1.30;1.20;;;25.00;47.40;;;;;;5015955;28;20206;-44
2021/07/12 01:38:25;;;;;;;1.30;1.08;;;25.00;47.30;;;;;;5010810;28;20689;-47
2021/07/12 01:40:51;;;;;;;1.45;1.35;;;25.00;47.30;;;;;;5011403;28;20655;-45
2021/07/12 01:43:18;;;;;;;1.30;1.20;;;25.00;47.30;;;;;;5012542;28;20724;-47
2021/07/12 01:45:44;;;;;;;1.30;1.20;;;25.00;47.30;;;;;;5015425;28;20211;-49
2021/07/12 01:48:11;;;;;;;1.40;1.30;;;25.00;47.30;;;;;;5028703;28;20638;-46
2021/07/12 01:50:37;;;;;;;1.23;1.13;;;25.00;47.30;;;;;;5013825;28;20659;-48
2021/07/12 01:53:03;;;;;;;1.13;1.08;;;25.00;47.30;;;;;;5024412;28;20534;-47
2021/07/12 01:55:30;;;;;;;1.30;1.20;;;25.00;47.30;;;;;;5014385;28;20656;-51
2021/07/12 01:57:56;;;;;;;1.42;1.33;;;25.00;47.30;;;;;;5017202;28;20693;-47
2021/07/12 02:00:23;;;;;;;1.20;1.10;;;25.00;47.30;;;;;;5013942;28;20203;-51
2021/07/12 02:02:49;;;;;;;1.38;1.27;;;25.00;47.30;;;;;;5016096;28;20238;-48
2021/07/12 02:05:16;;;;;;;1.85;1.23;;;25.00;47.30;;;;;;5033785;28;20202;-49
2021/07/12 02:07:42;;;;;;;1.40;1.30;;;25.00;47.30;;;;;;5019743;28;20203;-47
2021/07/12 02:10:08;;;;;;;1.52;1.15;;;25.00;47.30;;;;;;5012601;28;20211;-51
2021/07/12 02:12:35;;;;;;;1.33;1.08;;;25.00;47.30;;;;;;5021717;28;20228;-48
2021/07/12 02:15:01;;;;;;;2.05;1.17;;;25.00;47.30;;;;;;5019437;28;20199;-51
2021/07/12 02:17:28;;;;;;;1.50;1.40;;;25.00;47.30;;;;;;5012932;28;20222;-54
2021/07/12 02:19:54;;;;;;;1.45;1.35;;;25.00;47.30;;;;;;5014005;28;20234;-48
2021/07/12 02:22:21;;;;;;;1.10;1.10;;;25.00;47.30;;;;;;5013063;28;20600;-44
2021/07/12 02:24:47;;;;;;;1.17;1.08;;;25.00;47.30;;;;;;5023872;28;20619;-46
2021/07/12 02:27:14;;;;;;;1.58;1.20;;;25.00;47.30;;;;;;5029103;28;20683;-49
2021/07/12 02:29:40;;;;;;;1.27;0.90;;;25.00;47.30;;;;;;5021024;28;20674;-46
2021/07/12 02:32:06;;;;;;;2.72;1.40;;;25.00;47.30;;;;;;5016046;28;20237;-45
2021/07/12 02:34:33;;;;;;;1.55;1.45;;;25.00;48.00;;;;;;5022346;28;20650;-48
2021/07/12 02:36:59;;;;;;;1.58;1.40;;;25.00;47.40;;;;;;5023835;28;20651;-46
2021/07/12 02:39:26;;;;;;;1.50;1.27;;;25.00;47.40;;;;;;5017062;28;20227;-47
2021/07/12 02:41:52;;;;;;;1.40;1.30;;;25.00;47.40;;;;;;5013942;28;20457;-48
2021/07/12 02:44:19;;;;;;;1.30;1.10;;;25.00;47.40;;;;;;4995899;28;20212;-50
2021/07/12 02:46:45;;;;;;;1.63;1.52;;;25.00;47.40;;;;;;5012556;28;20203;-50
2021/07/12 02:49:11;;;;;;;1.20;1.10;;;25.00;47.40;;;;;;5014200;28;20203;-45
2021/07/12 02:51:38;;;;;;;1.33;1.23;;;25.00;47.30;;;;;;5013066;28;20206;-53
2021/07/12 02:54:04;;;;;;;1.08;1.08;;;25.00;47.40;;;;;;5022986;28;20203;-48
2021/07/12 02:56:31;;;;;;;1.42;1.23;;;25.00;47.30;;;;;;5028771;28;20209;-50
2021/07/12 02:58:58;;;;;;;1.40;1.30;;;25.00;47.40;;;;;;5019411;28;20233;-47
2021/07/12 03:01:24;;;;;;;1.00;1.00;;;25.00;47.40;;;;;;5012532;28;20210;-50
2021/07/12 03:03:51;;;;;;;1.27;1.17;;;25.00;47.40;;;;;;5022100;28;20226;-46
2021/07/12 03:06:17;;;;;;;1.20;1.10;;;25.00;47.40;;;;;;5026326;28;20206;-49
2021/07/12 03:08:44;;;;;;;1.35;1.25;;;25.00;47.40;;;;;;5026999;28;20214;-52
2021/07/12 03:11:10;;;;;;;1.45;1.33;;;25.00;47.40;;;;;;5017250;28;20206;-52
2021/07/12 03:13:36;;;;;;;1.20;1.10;;;25.00;47.40;;;;;;5021837;28;20215;-48
2021/07/12 03:16:03;;;;;;;1.48;1.38;;;25.00;47.40;;;;;;5011144;28;20221;-49
2021/07/12 03:18:29;;;;;;;1.27;1.10;;;25.00;47.30;;;;;;5014298;28;20223;-49
2021/07/12 03:20:56;;;;;;;1.30;1.20;;;25.00;47.30;;;;;;5017280;28;20205;-49
2021/07/12 03:23:23;;;;;;;1.23;1.13;;;25.00;47.30;;;;;;5015755;28;20683;-45
2021/07/12 03:25:49;;;;;;;2.35;1.02;;;25.00;47.30;;;;;;5019006;28;20663;-47
2021/07/12 03:28:15;;;;;;;0.82;0.82;;;25.00;47.30;;;;;;5029419;28;20400;-45
2021/07/12 03:30:42;;;;;;;1.58;1.17;;;25.00;47.30;;;;;;5015303;28;20207;-50
2021/07/12 03:33:08;;;;;;;1.20;1.10;;;25.00;47.30;;;;;;5011339;28;20241;-46
2021/07/12 03:35:35;;;;;;;1.83;1.10;;;25.00;47.30;;;;;;5012523;28;20204;-49
2021/07/12 03:38:01;;;;;;;1.23;1.13;;;25.00;47.30;;;;;;5013206;28;20213;-52
2021/07/12 03:40:28;;;;;;;1.30;1.20;;;25.00;47.30;;;;;;5003340;28;20227;-52
2021/07/12 03:42:54;;;;;;;1.83;1.40;;;24.90;47.20;;;;;;5027352;28;20226;-45
2021/07/12 03:45:21;;;;;;;1.00;1.00;;;25.00;47.30;;;;;;5009416;28;20210;-55
2021/07/12 03:47:50;;;;;;;1.00;1.00;;;25.00;47.30;;;;;;5022351;28;20282;-49
2021/07/12 03:50:16;;;;;;;0.95;0.95;;;24.90;47.20;;;;;;5021665;28;20298;-47
2021/07/12 03:52:43;;;;;;;1.50;1.40;;;25.00;47.30;;;;;;5011842;28;20219;-52
2021/07/12 03:55:09;;;;;;;1.15;1.05;;;25.00;47.30;;;;;;5011134;28;20207;-52
2021/07/12 03:57:36;;;;;;;1.15;1.02;;;25.00;47.30;;;;;;5017202;28;20203;-48
2021/07/12 04:00:02;;;;;;;1.67;1.30;;;25.00;47.30;;;;;;5015012;28;20226;-50
2021/07/12 04:02:29;;;;;;;1.02;1.02;;;25.00;47.30;;;;;;5013818;28;20223;-47
2021/07/12 04:04:55;;;;;;;1.63;1.20;;;25.00;47.30;;;;;;5013324;28;20608;-49
2021/07/12 04:07:22;;;;;;;1.10;1.00;;;24.90;47.20;;;;;;5015094;28;20650;-45
2021/07/12 04:09:48;;;;;;;1.20;1.10;;;25.00;47.30;;;;;;5014218;28;20225;-50
2021/07/12 04:12:22;;;;;;;1.38;1.23;;;25.00;47.30;;;;;;5015118;28;20233;-48
2021/07/12 04:14:49;;;;;;;0.85;0.85;;;25.00;47.30;;;;;;5014751;28;20198;-45
2021/07/12 04:17:15;;;;;;;1.58;1.10;;;24.90;47.20;;;;;;5013498;28;20202;-45
2021/07/12 04:19:42;;;;;;;1.35;1.10;;;25.00;47.30;;;;;;5022758;28;20234;-51
2021/07/12 04:22:08;;;;;;;1.08;1.02;;;25.00;47.30;;;;;;5018148;28;20238;-46
2021/07/12 04:24:35;;;;;;;1.35;1.05;;;24.90;47.20;;;;;;5011157;28;20194;-51
2021/07/12 04:27:01;;;;;;;1.30;1.20;;;24.90;47.20;;;;;;5010828;28;20202;-48
2021/07/12 04:29:27;;;;;;;1.20;1.10;;;25.00;47.30;;;;;;5021729;28;20206;-49
2021/07/12 04:31:56;;;;;;;1.23;1.13;;;24.90;47.10;;;;;;5011334;28;20223;-45
2021/07/12 04:34:22;;;;;;;1.20;1.10;;;25.00;47.30;;;;;;5029709;28;20573;-50
2021/07/12 04:36:49;;;;;;;1.15;1.05;;;24.90;47.10;;;;;;5028357;28;20607;-50
2021/07/12 04:39:15;;;;;;;1.98;1.40;;;25.00;47.20;;;;;;5018961;28;20728;-47
2021/07/12 04:41:42;;;;;;;1.20;1.13;;;25.00;47.20;;;;;;5011219;28;20215;-47
2021/07/12 04:44:08;;;;;;;1.85;1.25;;;25.00;47.20;;;;;;5016444;28;20214;-49
2021/07/12 04:46:35;;;;;;;1.00;1.00;;;25.00;47.20;;;;;;5011519;28;20191;-51
2021/07/12 04:49:01;;;;;;;1.35;1.00;;;25.00;47.20;;;;;;5021767;28;20217;-50
2021/07/12 04:51:27;;;;;;;1.30;1.10;;;25.00;47.20;;;;;;5028716;28;20202;-49
2021/07/12 04:53:54;;;;;;;1.38;1.27;;;24.90;47.10;;;;;;5013509;28;20302;-48
2021/07/12 04:56:20;;;;;;;1.10;1.00;;;24.90;47.10;;;;;;5014798;28;20206;-49
2021/07/12 04:58:48;;;;;;;1.20;1.10;;;25.00;47.20;;;;;;5016222;28;20203;-50
2021/07/12 05:01:14;;;;;;;1.27;0.90;;;25.00;47.20;;;;;;5022952;28;20202;-48
2021/07/12 05:03:41;;;;;;;1.05;1.00;;;25.00;47.20;;;;;;5010213;28;20205;-56
2021/07/12 05:06:07;;;;;;;1.20;1.10;;;24.90;47.10;;;;;;5012899;28;20199;-49
2021/07/12 05:08:34;;;;;;;1.02;0.93;;;25.00;47.20;;;;;;5014568;28;20201;-53
2021/07/12 05:11:00;;;;;;;1.23;1.13;;;24.90;47.10;;;;;;5020302;28;20241;-49
2021/07/12 05:13:27;;;;;;;1.40;1.05;;;25.00;47.10;;;;;;5012594;28;20560;-50
2021/07/12 05:15:53;;;;;;;1.10;1.05;;;25.00;47.20;;;;;;5011231;28;20316;-49
2021/07/12 05:18:21;;;;;;;1.13;1.10;;;25.00;47.20;;;;;;5017345;28;20238;-52
2021/07/12 05:20:47;;;;;;;0.93;0.93;;;25.00;47.20;;;;;;5016820;28;20226;-52
2021/07/12 05:23:13;;;;;;;1.50;1.40;;;25.00;47.20;;;;;;5023966;28;20233;-54
2021/07/12 05:25:40;;;;;;;1.10;1.00;;;25.00;47.20;;;;;;5017026;28;20198;-46
2021/07/12 05:28:06;;;;;;;1.40;1.30;;;24.90;47.10;;;;;;5022532;28;20199;-49
2021/07/12 05:30:33;;;;;;;0.98;0.93;;;25.00;47.20;;;;;;5016954;28;20316;-48
2021/07/12 05:32:59;;;;;;;1.33;1.20;;;25.00;47.20;;;;;;5030038;28;20232;-50
2021/07/12 05:35:26;;;;;;;1.10;1.00;;;25.00;47.10;;;;;;4998112;28;20208;-45
2021/07/12 05:37:52;;;;;;;1.20;1.10;;;24.90;47.10;;;;;;5020120;28;20217;-50
2021/07/12 05:40:19;;;;;;;10.90;1.10;;;25.00;47.30;;;;;;5033401;28;20233;-50
2021/07/12 05:42:45;;;;;;;1.20;1.10;;;24.90;47.20;;;;;;5033985;28;20226;-50
2021/07/12 05:45:12;;;;;;;1.13;1.10;;;25.00;47.30;;;;;;5017946;28;20214;-51
2021/07/12 05:47:38;;;;;;;1.58;1.13;;;25.00;47.30;;;;;;5018743;28;20199;-46
2021/07/12 05:50:05;;;;;;;1.08;0.95;;;24.90;47.40;;;;;;5021870;28;20260;-46
2021/07/12 05:52:32;;;;;;;3.38;1.10;;;25.00;47.60;;;;;;5028246;28;20303;-50
2021/07/12 05:54:59;;;;;;;2.80;1.17;;;25.00;48.10;;;;;;5012991;28;20674;-52
2021/07/12 05:57:25;;;;;;;3.35;1.40;;;25.00;48.90;;;;;;5017667;28;20611;-58
2021/07/12 05:59:52;;;;;;;1.35;1.08;;;25.00;47.80;;;;;;5018811;28;20603;-50
2021/07/12 06:02:18;;;;;;;2.58;1.17;;;25.00;47.90;;;;;;5017732;28;20600;-47
2021/07/12 06:04:45;;;;;;;1.77;1.35;;;25.00;47.80;;;;;;5027258;28;20547;-55
2021/07/12 06:07:11;;;;;;;1.60;1.27;;;25.00;47.80;;;;;;5016123;28;20211;-53
2021/07/12 06:09:37;;;;;;;4.32;1.70;;;25.00;47.80;;;;;;5026544;28;20213;-47
2021/07/12 06:12:04;;;;;;;2.70;1.48;;;25.00;48.50;;;;;;5017545;28;20219;-51
2021/07/12 06:14:30;;;;;;;4.15;1.67;;;25.00;48.70;;;;;;5028936;28;20346;-53
2021/07/12 06:16:57;;;;;;;4.00;1.60;;;25.00;49.10;;;;;;5015795;28;20660;-56
2021/07/12 06:19:23;;;;;;;4.88;1.27;;;25.00;49.60;;;;;;5014562;28;20635;-52
2021/07/12 06:21:50;;;;;;;3.88;1.63;;;25.00;49.90;;;;;;5009331;28;20226;-52
2021/07/12 06:24:16;;;;;;;6.53;2.08;;;25.00;50.00;;;;;;5016077;28;20726;-53
2021/07/12 06:26:43;;;;;;;4.47;1.90;;;25.00;50.40;;;;;;5025498;28;20624;-48
2021/07/12 06:29:09;;;;;;;8.82;2.60;;;25.00;50.50;;;;;;5031048;28;20575;-54
2021/07/12 06:31:36;;;;;;;4.88;2.28;;;25.00;51.00;;;;;;5021678;28;20573;-52
2021/07/12 06:34:02;;;;;;;5.20;2.20;;;25.00;50.00;;;;;;5014700;28;20677;-52
2021/07/12 06:36:29;;;;;;;2.03;1.70;;;24.70;48.20;;;;;;5015484;28;20677;-53
2021/07/12 06:38:55;;;;;;;2.30;1.70;;;24.50;45.20;;;;;;5024025;28;20656;-51
2021/07/12 06:41:22;;;;;;;2.05;1.60;;;24.20;45.10;;;;;;5022813;28;20313;-51
2021/07/12 06:43:48;;;;;;;2.05;1.60;;;24.20;43.50;;;;;;5015690;28;20195;-53
2021/07/12 06:46:15;;;;;;;1.60;1.50;;;24.10;43.00;;;;;;5012092;28;20200;-52
2021/07/12 06:48:41;;;;;;;1.65;1.40;;;23.90;43.20;;;;;;5004712;28;20198;-53
2021/07/12 06:51:08;;;;;;;1.75;1.65;;;24.00;43.00;;;;;;5014061;28;20245;-51
2021/07/12 06:53:35;;;;;;;1.45;1.35;;;24.20;43.60;;;;;;5015200;28;20217;-54
2021/07/12 06:56:01;;;;;;;1.52;1.42;;;24.30;44.00;;;;;;5006672;28;20309;-54
2021/07/12 06:58:28;;;;;;;1.75;1.42;;;24.40;44.40;;;;;;5012853;28;20308;-53
2021/07/12 07:00:54;;;;;;;1.67;1.30;;;24.50;44.90;;;;;;5012602;28;20310;-53
2021/07/12 07:03:21;;;;;;;4.07;1.73;;;24.60;45.20;;;;;;5014765;28;20293;-53
2021/07/12 07:05:47;;;;;;;1.52;1.40;;;24.60;45.20;;;;;;5022100;28;20203;-47
2021/07/12 07:08:13;;;;;;;1.40;1.30;;;24.60;45.70;;;;;;5012920;28;20199;-48
2021/07/12 07:10:40;;;;;;;1.45;1.35;;;24.70;45.90;;;;;;5022505;28;20206;-48
2021/07/12 07:13:06;;;;;;;1.40;1.20;;;24.70;46.20;;;;;;5018918;28;20207;-52
2021/07/12 07:15:33;;;;;;;1.50;1.40;;;24.70;46.40;;;;;;5009923;28;20203;-46
2021/07/12 07:17:59;;;;;;;1.63;1.52;;;24.70;46.80;;;;;;5010611;28;20739;-54
2021/07/12 07:20:29;;;;;;;1.33;1.23;;;24.80;47.30;;;;;;5023353;28;20225;-53
2021/07/12 07:22:55;;;;;;;2.08;1.10;;;24.80;47.10;;;;;;5022093;28;20309;-53
2021/07/12 07:25:21;;;;;;;1.92;1.80;;;24.80;47.40;;;;;;5022931;28;20620;-50
2021/07/12 07:27:48;;;;;;;1.80;1.70;;;24.80;47.50;;;;;;5013529;28;20618;-52
2021/07/12 07:30:14;;;;;;;1.40;1.30;;;24.80;47.30;;;;;;5012568;28;20233;-56
2021/07/12 07:32:41;;;;;;;1.30;1.20;;;24.80;47.50;;;;;;5019502;28;20256;-55
2021/07/12 07:35:07;;;;;;;1.55;1.20;;;24.90;47.50;;;;;;5022491;28;20297;-57
2021/07/12 07:37:34;;;;;;;2.00;1.30;;;24.90;47.50;;;;;;5008625;28;20203;-56
2021/07/12 07:40:00;;;;;;;1.80;1.42;;;24.90;47.60;;;;;;4992276;28;20250;-55
2021/07/12 07:42:27;;;;;;;5.97;1.75;;;24.90;47.60;;;;;;5010964;28;20317;-59
2021/07/12 07:44:57;;;;;;;1.67;1.33;;;24.90;47.80;;;;;;5029698;28;20221;-58
2021/07/12 07:47:23;;;;;;;1.63;1.45;;;24.90;47.60;;;;;;5019611;28;20282;-56
2021/07/12 07:49:50;;;;;;;2.53;1.70;;;24.90;47.30;;;;;;5017551;28;20203;-52
2021/07/12 07:52:17;;;;;;;3.05;1.90;;;24.90;48.00;;;;;;5010756;28;20318;-58
2021/07/12 07:54:43;;;;;;;3.78;1.67;;;24.90;47.70;;;;;;5014308;28;20198;-58
2021/07/12 07:57:10;;;;;;;5.47;1.50;;;24.90;47.60;;;;;;5018001;28;20294;-56
2021/07/12 07:59:36;;;;;;;1.58;1.48;;;24.90;47.80;;;;;;5002841;28;20231;-58
2021/07/12 08:02:02;;;;;;;2.50;1.50;;;24.90;47.00;;;;;;5010040;28;20248;-57
2021/07/12 08:04:29;;;;;;;7.22;2.30;;;24.90;47.30;;;;;;5011181;28;20213;-56
2021/07/12 08:06:55;;;;;;;1.52;1.42;;;24.90;46.60;;;;;;5011844;28;20443;-56
2021/07/12 08:09:22;;;;;;;2.17;1.50;;;24.90;47.80;;;;;;5011015;28;20218;-57
2021/07/12 08:11:48;;;;;;;2.63;1.40;;;24.90;48.50;;;;;;5011808;28;20227;-56
2021/07/12 08:14:15;;;;;;;2.60;1.52;;;24.90;48.50;;;;;;5011364;28;20205;-57
2021/07/12 08:16:41;;;;;;;2.17;1.60;;;24.90;48.50;;;;;;5012227;28;20213;-57
2021/07/12 08:19:08;;;;;;;1.80;1.50;;;24.90;48.50;;;;;;5013172;28;20203;-55
2021/07/12 08:21:34;;;;;;;2.10;1.67;;;25.00;48.50;;;;;;5011913;28;20249;-56
2021/07/12 08:24:01;;;;;;;1.55;1.33;;;24.90;48.50;;;;;;5011022;28;20371;-55
2021/07/12 08:26:27;;;;;;;1.40;1.30;;;24.90;48.50;;;;;;5011869;28;20305;-56
2021/07/12 08:28:54;;;;;;;2.40;1.40;;;24.90;48.50;;;;;;5011478;28;20559;-56
2021/07/12 08:31:20;;;;;;;1.50;1.40;;;24.90;48.50;;;;;;5011415;28;20227;-57
2021/07/12 08:33:47;;;;;;;1.65;1.42;;;24.90;48.50;;;;;;5011885;28;20576;-56
2021/07/12 08:36:16;;;;;;;2.28;1.90;;;24.90;48.50;;;;;;5008512;28;20581;-58
2021/07/12 08:38:43;;;;;;;2.40;1.55;;;24.90;48.50;;;;;;5006963;28;20554;-57
2021/07/12 08:41:09;;;;;;;1.98;1.70;;;24.90;48.50;;;;;;5010217;28;20230;-57
2021/07/12 08:43:36;;;;;;;2.15;1.30;;;24.90;48.50;;;;;;5011144;28;20203;-58
2021/07/12 08:46:02;;;;;;;2.00;1.55;;;24.90;48.50;;;;;;5011962;28;20203;-57
2021/07/12 08:48:29;;;;;;;2.47;1.60;;;24.90;48.50;;;;;;5011457;28;20205;-58
2021/07/12 08:50:55;;;;;;;1.50;1.40;;;24.90;48.50;;;;;;5011484;28;20353;-57
2021/07/12 08:53:22;;;;;;;1.73;1.63;;;24.90;48.50;;;;;;5009371;28;20658;-58
2021/07/12 08:55:48;;;;;;;2.03;1.35;;;25.00;48.50;;;;;;5011056;28;20674;-58
2021/07/12 08:58:19;;;;;;;1.23;1.10;;;24.90;48.50;;;;;;5011462;28;20659;-57
2021/07/12 09:00:46;;;;;;;2.17;1.50;;;24.90;48.50;;;;;;5011281;28;20580;-57
2021/07/12 09:03:13;;;;;;;1.50;1.40;;;25.00;48.50;;;;;;5010793;28;20214;-58
2021/07/12 09:05:39;;;;;;;1.75;1.40;;;24.90;49.20;;;;;;5008695;28;20204;-58
2021/07/12 09:08:06;;;;;;;1.80;1.60;;;24.90;48.50;;;;;;5013541;28;20207;-58
2021/07/12 09:10:32;;;;;;;1.30;1.20;;;24.90;48.50;;;;;;5011931;28;20223;-58
2021/07/12 09:12:58;;;;;;;1.45;1.35;;;24.90;48.10;;;;;;5010241;28;20342;-58
2021/07/12 09:15:25;;;;;;;2.13;1.20;;;24.90;48.30;;;;;;5010755;28;20199;-57
2021/07/12 09:17:51;;;;;;;1.58;1.20;;;25.00;48.50;;;;;;5013711;28;20222;-58
2021/07/12 09:20:18;;;;;;;2.83;1.17;;;25.00;47.80;;;;;;5018329;28;20226;-59
2021/07/12 09:22:44;;;;;;;2.00;1.42;;;25.00;47.80;;;;;;5020882;28;20213;-59
2021/07/12 09:25:11;;;;;;;1.20;1.10;;;25.00;47.90;;;;;;5010795;28;20199;-59
2021/07/12 09:27:38;;;;;;;1.52;1.20;;;25.00;47.50;;;;;;5011223;28;20191;-59
2021/07/12 09:30:04;;;;;;;1.80;1.50;;;25.00;46.10;;;;;;5005883;28;20306;-59
2021/07/12 09:32:31;;;;;;;1.48;1.10;;;25.00;45.50;;;;;;5003737;28;20213;-59
2021/07/12 09:34:57;;;;;;;1.30;1.20;;;25.00;44.40;;;;;;5019711;28;20199;-59
2021/07/12 09:37:24;;;;;;;2.25;1.23;;;25.00;43.80;;;;;;5009354;28;20223;-59
2021/07/12 09:39:50;;;;;;;1.88;1.48;;;25.00;43.60;;;;;;5010521;28;20215;-59
2021/07/12 09:42:17;;;;;;;2.35;1.40;;;25.00;43.80;;;;;;5010890;28;20199;-58
2021/07/12 09:44:43;;;;;;;1.42;1.23;;;25.00;43.10;;;;;;5010319;28;20230;-59
2021/07/12 09:47:10;;;;;;;1.27;1.17;;;25.00;43.30;;;;;;5010611;28;20199;-58
2021/07/12 09:49:36;;;;;;;2.03;1.30;;;25.00;44.10;;;;;;5008146;28;20200;-57
2021/07/12 09:52:03;;;;;;;2.33;1.40;;;25.00;44.10;;;;;;5016080;28;20211;-56
2021/07/12 09:54:31;;;;;;;1.27;1.15;;;25.00;44.70;;;;;;5024578;28;20210;-55
2021/07/12 09:56:58;;;;;;;1.40;1.30;;;24.90;45.00;;;;;;5010037;28;20576;-57
2021/07/12 09:59:24;;;;;;;1.42;1.20;;;25.00;44.00;;;;;;5011292;28;20564;-55
2021/07/12 10:01:51;;;;;;;2.30;1.55;;;24.90;44.00;;;;;;5014449;28;20583;-57
2021/07/12 10:04:17;;;;;;;3.90;1.40;;;24.90;43.70;;;;;;4993648;28;20506;-57
2021/07/12 10:06:44;;;;;;;1.52;1.35;;;25.00;43.80;;;;;;5012084;28;20669;-57
2021/07/12 10:09:10;;;;;;;1.90;1.48;;;25.00;43.20;;;;;;5016528;28;20222;-58
2021/07/12 10:11:36;;;;;;;3.10;1.33;;;24.90;42.80;;;;;;5022205;28;20210;-60
2021/07/12 10:14:03;;;;;;;1.80;1.45;;;24.90;44.10;;;;;;5018255;28;20209;-59
2021/07/12 10:16:29;;;;;;;2.53;1.75;;;24.90;44.90;;;;;;5013463;28;20211;-59
2021/07/12 10:18:56;;;;;;;1.42;1.33;;;25.00;45.20;;;;;;5013430;28;20450;-57
2021/07/12 10:21:22;;;;;;;2.25;1.23;;;25.00;45.00;;;;;;5012139;28;20236;-57
2021/07/12 10:23:49;;;;;;;1.50;1.40;;;25.00;44.70;;;;;;5021560;28;20289;-57
2021/07/12 10:26:15;;;;;;;3.53;1.30;;;25.00;44.20;;;;;;5015127;28;20209;-57
2021/07/12 10:28:43;;;;;;;1.30;1.20;;;25.00;43.90;;;;;;5032089;28;20213;-57
2021/07/12 10:31:09;;;;;;;1.27;1.17;;;25.00;43.80;;;;;;5014696;28;20301;-57
2021/07/12 10:33:36;;;;;;;1.33;1.17;;;25.00;43.80;;;;;;5012592;28;20206;-57
2021/07/12 10:36:03;;;;;;;1.50;1.40;;;25.00;43.80;;;;;;5013404;28;20297;-57
2021/07/12 10:38:31;;;;;;;1.85;1.30;;;25.00;43.60;;;;;;5013717;28;20210;-57
2021/07/12 10:40:58;;;;;;;1.48;1.30;;;25.00;43.80;;;;;;5012184;28;20254;-57
2021/07/12 10:43:24;;;;;;;1.80;1.60;;;24.90;43.00;;;;;;5029439;28;20198;-57
2021/07/12 10:45:51;;;;;;;1.30;1.17;;;24.90;43.00;;;;;;5031557;28;20715;-57
2021/07/12 10:48:18;;;;;;;3.97;1.88;;;24.90;42.70;;;;;;5027838;28;20229;-57
2021/07/12 10:50:44;;;;;;;1.30;1.17;;;25.00;42.90;;;;;;5018627;28;20227;-57
2021/07/12 10:53:11;;;;;;;1.77;1.40;;;25.00;43.80;;;;;;5014936;28;20199;-52
2021/07/12 10:55:47;;;;;;;1.15;1.10;;;24.90;44.30;;;;;;5432636;23;20228;-59
2021/07/12 10:58:13;;;;;;;1.65;1.13;;;24.90;44.30;;;;;;4989580;28;20207;-59
2021/07/12 11:00:40;;;;;;;1.60;1.50;;;25.00;44.60;;;;;;5001317;28;20242;-59
2021/07/12 11:03:06;;;;;;;1.52;1.30;;;25.00;44.80;;;;;;4997132;28;20214;-58
2021/07/12 11:05:33;;;;;;;1.45;1.27;;;25.00;45.00;;;;;;5003656;28;20223;-59
2021/07/12 11:07:59;;;;;;;1.52;1.42;;;25.00;45.00;;;;;;4987464;28;20206;-59
2021/07/12 11:10:25;;;;;;;4.10;1.50;;;25.00;45.00;;;;;;4993526;28;20211;-59
2021/07/12 11:12:52;;;;;;;1.52;1.30;;;25.00;45.80;;;;;;4993510;28;20290;-59
2021/07/12 11:15:18;;;;;;;1.30;1.20;;;25.00;45.20;;;;;;4992275;28;20228;-59
2021/07/12 11:17:45;;;;;;;1.20;1.10;;;25.00;45.20;;;;;;4992177;28;20295;-58
2021/07/12 11:20:12;;;;;;;1.45;1.35;;;25.00;45.20;;;;;;4993900;28;20208;-59
2021/07/12 11:22:38;;;;;;;1.30;1.20;;;25.00;45.30;;;;;;4992925;28;20291;-59
2021/07/12 11:25:05;;;;;;;1.30;1.20;;;25.00;46.00;;;;;;4993424;28;20208;-57
2021/07/12 11:27:32;;;;;;;1.40;1.30;;;25.00;45.30;;;;;;4991972;28;20219;-58
2021/07/12 11:29:58;;;;;;;1.70;1.42;;;25.00;45.40;;;;;;4993181;28;20226;-57
2021/07/12 11:32:25;;;;;;;5.00;2.40;;;25.00;45.40;;;;;;4991661;28;20204;-57
2021/07/12 11:34:52;;;;;;;10.88;3.13;;;25.00;45.50;;;;;;4995609;28;20701;-57
2021/07/12 11:37:18;;;;;;;7.75;2.85;;;25.00;46.10;;;;;;4991835;28;20381;-56
2021/07/12 11:39:45;;;;;;;9.18;3.17;;;25.00;45.80;;;;;;5000475;28;20196;-56
2021/07/12 11:42:11;;;;;;;11.60;4.15;;;25.00;45.70;;;;;;4992562;28;20237;-57
2021/07/12 11:44:38;;;;;;;10.82;3.67;;;25.00;45.90;;;;;;4991651;28;20204;-56
2021/07/12 11:47:04;;;;;;;10.35;3.08;;;25.00;45.90;;;;;;4992402;28;20224;-56
2021/07/12 11:49:30;;;;;;;9.00;3.53;;;25.00;46.00;;;;;;4991574;28;20215;-58
2021/07/12 11:51:58;;;;;;;7.53;3.50;;;25.00;46.10;;;;;;4990104;28;20214;-56
2021/07/12 11:54:24;;;;;;;8.52;2.92;;;25.00;46.10;;;;;;4991279;28;20210;-59
2021/07/12 11:56:51;;;;;;;6.65;3.33;;;25.00;46.10;;;;;;4978586;28;20228;-57
2021/07/12 11:59:17;;;;;;;10.10;3.22;;;25.00;46.20;;;;;;4976117;28;20219;-56
2021/07/12 12:01:44;;;;;;;6.75;3.30;;;25.00;46.20;;;;;;4991762;28;20227;-57
2021/07/12 12:04:13;;;;;;;8.55;3.45;;;25.00;46.20;;;;;;4992267;28;20722;-56
2021/07/12 12:06:40;;;;;;;4.70;2.80;;;25.00;46.20;;;;;;4991380;28;20231;-57
2021/07/12 12:09:06;;;;;;;8.27;4.00;;;25.00;46.20;;;;;;5003332;28;20195;-56
2021/07/12 12:11:33;;;;;;;8.18;3.15;;;25.00;46.20;;;;;;5012156;28;20213;-58
2021/07/12 12:14:00;;;;;;;5.45;2.78;;;25.00;46.10;;;;;;4999883;28;20208;-56
2021/07/12 12:16:26;;;;;;;7.70;3.35;;;25.00;46.60;;;;;;5003444;28;20229;-56
2021/07/12 12:18:54;;;;;;;7.30;3.35;;;25.00;46.60;;;;;;4995531;28;20208;-57
2021/07/12 12:21:21;;;;;;;7.53;3.10;;;25.00;46.40;;;;;;4992211;28;20639;-56
2021/07/12 12:23:47;;;;;;;6.18;3.10;;;25.00;46.30;;;;;;4991168;28;20271;-56
2021/07/12 12:26:16;;;;;;;8.05;3.97;;;25.00;46.30;;;;;;4997443;28;20223;-56
2021/07/12 12:28:43;;;;;;;9.30;3.85;;;25.10;46.30;;;;;;4991613;28;20689;-57
2021/07/12 12:31:10;;;;;;;6.55;3.53;;;25.10;46.30;;;;;;4992312;28;20214;-57
2021/07/12 12:33:36;;;;;;;5.15;3.42;;;25.00;47.00;;;;;;4993135;28;20207;-58
2021/07/12 12:36:03;;;;;;;7.80;3.58;;;25.10;46.30;;;;;;4988351;28;20223;-57
2021/07/12 12:38:29;;;;;;;5.68;3.28;;;25.00;46.30;;;;;;4990120;28;20202;-58
2021/07/12 12:40:56;;;;;;;4.40;2.60;;;25.10;46.40;;;;;;4991650;28;20235;-56